createdAt,value
2023-05-17T00:00:44.013Z,94561.00
2023-05-17T00:01:44.049Z,94561.00
2023-05-17T00:02:44.179Z,94567.00
2023-05-17T00:03:44.168Z,94561.00
2023-05-17T00:04:44.248Z,94563.00
2023-05-17T00:05:44.279Z,94569.00
2023-05-17T00:06:44.298Z,94565.00
2023-05-17T00:07:44.346Z,94565.00
2023-05-17T00:08:44.389Z,94565.00
2023-05-17T00:09:44.587Z,94565.00
2023-05-17T00:10:44.517Z,94565.00
2023-05-17T00:11:44.564Z,94569.00
2023-05-17T00:12:44.609Z,94567.00
2023-05-17T00:13:44.666Z,94569.00
2023-05-17T00:14:44.722Z,94571.00
2023-05-17T00:15:44.788Z,94571.00
2023-05-17T00:16:44.825Z,94569.00
2023-05-17T00:17:45.039Z,94569.00
2023-05-17T00:18:44.986Z,94573.00
2023-05-17T00:19:45.036Z,94571.00
2023-05-17T00:20:45.035Z,94575.00
2023-05-17T00:21:45.086Z,94573.00
2023-05-17T00:22:45.149Z,94571.00
2023-05-17T00:23:45.166Z,94576.00
2023-05-17T00:24:45.229Z,94578.00
2023-05-17T00:25:45.342Z,94582.00
2023-05-17T00:26:45.342Z,94578.00
2023-05-17T00:27:45.385Z,94578.00
2023-05-17T00:28:45.424Z,94580.00
2023-05-17T00:29:45.474Z,94582.00
2023-05-17T00:30:45.512Z,94580.00
2023-05-17T00:31:45.548Z,94576.00
2023-05-17T00:32:45.720Z,94576.00
2023-05-17T00:33:45.676Z,94578.00
2023-05-17T00:34:45.767Z,94576.00
2023-05-17T00:35:45.766Z,94575.00
2023-05-17T00:36:45.805Z,94573.00
2023-05-17T00:37:45.843Z,94580.00
2023-05-17T00:38:45.909Z,94576.00
2023-05-17T00:39:45.956Z,94578.00
2023-05-17T00:40:46.031Z,94580.00
2023-05-17T00:41:46.128Z,94580.00
2023-05-17T00:42:46.092Z,94580.00
2023-05-17T00:43:46.114Z,94578.00
2023-05-17T00:44:46.145Z,94576.00
2023-05-17T00:45:46.192Z,94580.00
2023-05-17T00:46:46.204Z,94580.00
2023-05-17T00:47:46.534Z,94576.00
2023-05-17T00:48:46.307Z,94576.00
2023-05-17T00:49:46.312Z,94576.00
2023-05-17T00:50:46.332Z,94578.00
2023-05-17T00:51:46.354Z,94576.00
2023-05-17T00:52:46.391Z,94578.00
2023-05-17T00:53:46.439Z,94578.00
2023-05-17T00:54:46.452Z,94576.00
2023-05-17T00:55:46.482Z,94582.00
2023-05-17T00:56:46.495Z,94578.00
2023-05-17T00:57:46.694Z,94578.00
2023-05-17T00:58:46.545Z,94578.00
2023-05-17T00:59:46.539Z,94578.00
2023-05-17T01:00:46.557Z,94571.00
2023-05-17T01:01:46.584Z,94575.00
2023-05-17T01:02:46.682Z,94580.00
2023-05-17T01:03:46.927Z,94576.00
2023-05-17T01:04:46.730Z,94578.00
2023-05-17T01:05:46.729Z,94575.00
2023-05-17T01:06:46.760Z,94575.00
2023-05-17T01:07:46.808Z,94578.00
2023-05-17T01:08:46.856Z,94578.00
2023-05-17T01:09:46.900Z,94576.00
2023-05-17T01:10:46.959Z,94580.00
2023-05-17T01:11:47.010Z,94578.00
2023-05-17T01:12:47.045Z,94576.00
2023-05-17T01:13:47.120Z,94578.00
2023-05-17T01:14:47.079Z,94576.00
2023-05-17T01:15:47.059Z,94576.00
2023-05-17T01:16:47.082Z,94578.00
2023-05-17T01:17:47.216Z,94575.00
2023-05-17T01:18:47.347Z,94576.00
2023-05-17T01:19:47.218Z,94580.00
2023-05-17T01:20:47.152Z,94580.00
2023-05-17T01:21:47.168Z,94582.00
2023-05-17T01:22:47.196Z,94586.00
2023-05-17T01:23:47.230Z,94586.00
2023-05-17T01:24:47.259Z,94588.00
2023-05-17T01:25:47.280Z,94590.00
2023-05-17T01:26:47.283Z,94592.00
2023-05-17T01:27:47.312Z,94594.00
2023-05-17T01:28:47.337Z,94594.00
2023-05-17T01:29:47.470Z,94596.00
2023-05-17T01:30:47.395Z,94594.00
2023-05-17T01:31:47.420Z,94598.00
2023-05-17T01:32:47.596Z,94598.00
2023-05-17T01:33:47.622Z,94600.00
2023-05-17T01:34:47.547Z,94598.00
2023-05-17T01:35:47.597Z,94596.00
2023-05-17T01:36:47.610Z,94600.00
2023-05-17T01:37:47.628Z,94598.00
2023-05-17T01:38:47.632Z,94598.00
2023-05-17T01:39:47.666Z,94596.00
2023-05-17T01:40:47.692Z,94602.00
2023-05-17T01:41:47.713Z,94598.00
2023-05-17T01:42:47.806Z,94598.00
2023-05-17T01:43:47.757Z,94604.00
2023-05-17T01:44:47.769Z,94604.00
2023-05-17T01:45:47.789Z,94602.00
2023-05-17T01:46:47.815Z,94602.00
2023-05-17T01:47:47.910Z,94606.00
2023-05-17T01:48:47.890Z,94608.00
2023-05-17T01:49:47.869Z,94606.00
2023-05-17T01:50:47.883Z,94606.00
2023-05-17T01:51:47.893Z,94608.00
2023-05-17T01:52:47.930Z,94606.00
2023-05-17T01:53:47.966Z,94606.00
2023-05-17T01:54:47.963Z,94608.00
2023-05-17T01:55:48.001Z,94608.00
2023-05-17T01:56:48.004Z,94612.00
2023-05-17T01:57:48.038Z,94612.00
2023-05-17T01:58:48.044Z,94614.00
2023-05-17T01:59:48.074Z,94614.00
2023-05-17T02:00:48.096Z,94616.00
2023-05-17T02:01:48.171Z,94616.00
2023-05-17T02:02:48.192Z,94618.00
2023-05-17T02:03:48.240Z,94616.00
2023-05-17T02:04:48.243Z,94616.00
2023-05-17T02:05:48.179Z,94616.00
2023-05-17T02:06:48.152Z,94618.00
2023-05-17T02:07:48.177Z,94618.00
2023-05-17T02:08:48.157Z,94618.00
2023-05-17T02:09:48.160Z,94618.00
2023-05-17T02:10:48.160Z,94623.00
2023-05-17T02:11:48.165Z,94623.00
2023-05-17T02:12:48.166Z,94618.00
2023-05-17T02:13:48.171Z,94620.00
2023-05-17T02:14:48.177Z,94618.00
2023-05-17T02:15:48.164Z,94622.00
2023-05-17T02:16:48.152Z,94616.00
2023-05-17T02:17:48.382Z,94614.00
2023-05-17T02:18:48.286Z,94616.00
2023-05-17T02:19:48.222Z,94625.00
2023-05-17T02:20:48.227Z,94623.00
2023-05-17T02:21:48.212Z,94623.00
2023-05-17T02:22:48.223Z,94620.00
2023-05-17T02:23:48.205Z,94620.00
2023-05-17T02:24:48.202Z,94622.00
2023-05-17T02:25:48.219Z,94622.00
2023-05-17T02:26:48.213Z,94620.00
2023-05-17T02:27:48.200Z,94623.00
2023-05-17T02:28:48.193Z,94625.00
2023-05-17T02:29:48.191Z,94629.00
2023-05-17T02:30:48.196Z,94625.00
2023-05-17T02:31:48.199Z,94637.00
2023-05-17T02:32:48.274Z,94629.00
2023-05-17T02:33:48.344Z,94637.00
2023-05-17T02:34:48.200Z,94639.00
2023-05-17T02:35:48.196Z,94637.00
2023-05-17T02:36:48.196Z,94637.00
2023-05-17T02:37:48.204Z,94639.00
2023-05-17T02:38:48.197Z,94637.00
2023-05-17T02:39:48.178Z,94639.00
2023-05-17T02:40:48.182Z,94643.00
2023-05-17T02:41:48.192Z,94645.00
2023-05-17T02:42:48.189Z,94643.00
2023-05-17T02:43:48.192Z,94639.00
2023-05-17T02:44:48.182Z,94643.00
2023-05-17T02:45:48.186Z,94647.00
2023-05-17T02:46:48.212Z,94647.00
2023-05-17T02:47:48.315Z,94647.00
2023-05-17T02:48:48.192Z,94649.00
2023-05-17T02:49:48.239Z,94653.00
2023-05-17T02:50:48.168Z,94653.00
2023-05-17T02:51:48.163Z,94651.00
2023-05-17T02:52:48.175Z,94659.00
2023-05-17T02:53:48.153Z,94657.00
2023-05-17T02:54:48.151Z,94659.00
2023-05-17T02:55:48.150Z,94659.00
2023-05-17T02:56:48.139Z,94657.00
2023-05-17T02:57:48.139Z,94659.00
2023-05-17T02:58:48.134Z,94657.00
2023-05-17T02:59:48.122Z,94663.00
2023-05-17T03:00:48.114Z,94669.00
2023-05-17T03:01:48.109Z,94671.00
2023-05-17T03:02:48.189Z,94675.00
2023-05-17T03:03:48.319Z,94678.00
2023-05-17T03:04:48.197Z,94676.00
2023-05-17T03:05:48.298Z,94676.00
2023-05-17T03:06:48.111Z,94678.00
2023-05-17T03:07:48.123Z,94682.00
2023-05-17T03:08:48.091Z,94684.00
2023-05-17T03:09:48.118Z,94684.00
2023-05-17T03:10:48.091Z,94684.00
2023-05-17T03:11:48.100Z,94684.00
2023-05-17T03:12:48.112Z,94686.00
2023-05-17T03:13:48.086Z,94690.00
2023-05-17T03:14:48.083Z,94692.00
2023-05-17T03:15:48.084Z,94692.00
2023-05-17T03:16:48.083Z,94692.00
2023-05-17T03:17:48.108Z,94694.00
2023-05-17T03:18:48.226Z,94694.00
2023-05-17T03:19:48.061Z,94694.00
2023-05-17T03:20:48.054Z,94694.00
2023-05-17T03:21:48.126Z,94694.00
2023-05-17T03:22:48.039Z,94698.00
2023-05-17T03:23:48.033Z,94700.00
2023-05-17T03:24:48.029Z,94704.00
2023-05-17T03:25:48.030Z,94706.00
2023-05-17T03:26:48.038Z,94708.00
2023-05-17T03:27:48.118Z,94708.00
2023-05-17T03:28:48.034Z,94706.00
2023-05-17T03:29:48.040Z,94710.00
2023-05-17T03:30:48.101Z,94714.00
2023-05-17T03:31:48.025Z,94716.00
2023-05-17T03:32:48.088Z,94716.00
2023-05-17T03:33:48.107Z,94716.00
2023-05-17T03:34:48.013Z,94716.00
2023-05-17T03:35:48.030Z,94720.00
2023-05-17T03:36:48.018Z,94722.00
2023-05-17T03:37:48.125Z,94722.00
2023-05-17T03:38:48.049Z,94722.00
2023-05-17T03:39:48.070Z,94725.00
2023-05-17T03:40:48.054Z,94729.00
2023-05-17T03:41:48.071Z,94729.00
2023-05-17T03:42:48.030Z,94731.00
2023-05-17T03:43:48.033Z,94733.00
2023-05-17T03:44:48.029Z,94733.00
2023-05-17T03:45:48.071Z,94737.00
2023-05-17T03:46:48.069Z,94737.00
2023-05-17T03:47:48.125Z,94739.00
2023-05-17T03:48:48.152Z,94739.00
2023-05-17T03:49:48.130Z,94743.00
2023-05-17T03:50:48.133Z,94745.00
2023-05-17T03:51:48.145Z,94749.00
2023-05-17T03:52:48.135Z,94751.00
2023-05-17T03:53:48.245Z,94753.00
2023-05-17T03:54:48.310Z,94749.00
2023-05-17T03:55:48.119Z,94747.00
2023-05-17T03:56:48.125Z,94749.00
2023-05-17T03:57:48.114Z,94751.00
2023-05-17T03:58:48.119Z,94753.00
2023-05-17T03:59:48.093Z,94755.00
2023-05-17T04:00:48.085Z,94757.00
2023-05-17T04:01:48.098Z,94757.00
2023-05-17T04:02:48.119Z,94757.00
2023-05-17T04:03:48.127Z,94759.00
2023-05-17T04:04:48.104Z,94761.00
2023-05-17T04:05:48.068Z,94765.00
2023-05-17T04:06:48.069Z,94767.00
2023-05-17T04:07:48.056Z,94769.00
2023-05-17T04:08:48.044Z,94767.00
2023-05-17T04:09:49.014Z,94769.00
2023-05-17T04:10:48.042Z,94770.00
2023-05-17T04:11:48.040Z,94772.00
2023-05-17T04:12:48.041Z,94772.00
2023-05-17T04:13:48.038Z,94774.00
2023-05-17T04:14:48.036Z,94774.00
2023-05-17T04:15:48.034Z,94774.00
2023-05-17T04:16:48.024Z,94774.00
2023-05-17T04:17:48.084Z,94776.00
2023-05-17T04:18:48.133Z,94778.00
2023-05-17T04:19:48.082Z,94778.00
2023-05-17T04:20:48.025Z,94778.00
2023-05-17T04:21:48.022Z,94780.00
2023-05-17T04:22:48.007Z,94780.00
2023-05-17T04:23:48.008Z,94780.00
2023-05-17T04:24:47.994Z,94780.00
2023-05-17T04:25:48.061Z,94782.00
2023-05-17T04:26:48.003Z,94780.00
2023-05-17T04:27:47.987Z,94782.00
2023-05-17T04:28:47.992Z,94782.00
2023-05-17T04:29:47.976Z,94782.00
2023-05-17T04:30:47.971Z,94784.00
2023-05-17T04:31:47.971Z,94784.00
2023-05-17T04:32:47.996Z,94784.00
2023-05-17T04:33:48.005Z,94786.00
2023-05-17T04:34:47.963Z,94786.00
2023-05-17T04:35:47.952Z,94788.00
2023-05-17T04:36:47.939Z,94790.00
2023-05-17T04:37:47.949Z,94792.00
2023-05-17T04:38:47.935Z,94792.00
2023-05-17T04:39:47.935Z,94794.00
2023-05-17T04:40:47.928Z,94796.00
2023-05-17T04:41:47.996Z,94798.00
2023-05-17T04:42:47.949Z,94800.00
2023-05-17T04:43:47.933Z,94802.00
2023-05-17T04:44:47.943Z,94802.00
2023-05-17T04:45:47.946Z,94800.00
2023-05-17T04:46:47.931Z,94798.00
2023-05-17T04:47:48.046Z,94800.00
2023-05-17T04:48:48.013Z,94800.00
2023-05-17T04:49:47.946Z,94802.00
2023-05-17T04:50:47.925Z,94802.00
2023-05-17T04:51:47.944Z,94806.00
2023-05-17T04:52:47.937Z,94804.00
2023-05-17T04:53:47.942Z,94804.00
2023-05-17T04:54:47.915Z,94804.00
2023-05-17T04:55:47.909Z,94808.00
2023-05-17T04:56:47.898Z,94806.00
2023-05-17T04:57:47.928Z,94808.00
2023-05-17T04:58:47.898Z,94810.00
2023-05-17T04:59:47.878Z,94808.00
2023-05-17T05:00:47.883Z,94812.00
2023-05-17T05:01:47.878Z,94810.00
2023-05-17T05:02:47.914Z,94812.00
2023-05-17T05:03:47.946Z,94816.00
2023-05-17T05:04:47.948Z,94814.00
2023-05-17T05:05:47.871Z,94817.00
2023-05-17T05:06:47.872Z,94817.00
2023-05-17T05:07:47.871Z,94817.00
2023-05-17T05:08:47.876Z,94819.00
2023-05-17T05:09:47.876Z,94821.00
2023-05-17T05:10:47.881Z,94819.00
2023-05-17T05:11:47.872Z,94819.00
2023-05-17T05:12:47.882Z,94825.00
2023-05-17T05:13:47.933Z,94821.00
2023-05-17T05:14:47.858Z,94823.00
2023-05-17T05:15:47.869Z,94825.00
2023-05-17T05:16:47.856Z,94827.00
2023-05-17T05:17:47.933Z,94829.00
2023-05-17T05:18:48.079Z,94833.00
2023-05-17T05:19:47.934Z,94831.00
2023-05-17T05:20:47.856Z,94831.00
2023-05-17T05:21:47.892Z,94833.00
2023-05-17T05:22:47.861Z,94833.00
2023-05-17T05:23:47.857Z,94833.00
2023-05-17T05:24:47.849Z,94835.00
2023-05-17T05:25:47.887Z,94837.00
2023-05-17T05:26:47.847Z,94835.00
2023-05-17T05:27:47.846Z,94837.00
2023-05-17T05:31:26.099Z,94843.00
2023-05-17T05:32:26.025Z,94839.00
2023-05-17T05:33:26.372Z,94841.00
2023-05-17T05:34:26.028Z,94843.00
2023-05-17T05:35:26.149Z,94843.00
2023-05-17T05:36:26.111Z,94843.00
2023-05-17T05:37:26.082Z,94845.00
2023-05-17T05:38:26.058Z,94845.00
2023-05-17T05:39:26.041Z,94841.00
2023-05-17T05:40:26.194Z,94849.00
2023-05-17T05:41:26.059Z,94847.00
2023-05-17T05:42:26.048Z,94849.00
2023-05-17T05:43:26.044Z,94845.00
2023-05-17T05:44:26.121Z,94845.00
2023-05-17T05:45:26.078Z,94843.00
2023-05-17T05:46:26.113Z,94845.00
2023-05-17T05:47:26.165Z,94847.00
2023-05-17T05:48:26.385Z,94849.00
2023-05-17T05:49:26.281Z,94849.00
2023-05-17T05:50:26.387Z,94849.00
2023-05-17T05:51:26.395Z,94845.00
2023-05-17T05:52:26.456Z,94847.00
2023-05-17T05:53:26.516Z,94847.00
2023-05-17T05:54:26.574Z,94853.00
2023-05-17T05:55:26.657Z,94855.00
2023-05-17T05:56:26.681Z,94853.00
2023-05-17T05:57:26.716Z,94855.00
2023-05-17T05:58:26.787Z,94859.00
2023-05-17T05:59:26.816Z,94857.00
2023-05-17T06:00:27.023Z,94859.00
2023-05-17T06:01:26.945Z,94861.00
2023-05-17T06:02:27.004Z,94861.00
2023-05-17T06:03:27.073Z,94865.00
2023-05-17T06:04:33.078Z,94863.00
2023-05-17T06:05:28.079Z,94863.00
2023-05-17T06:06:27.198Z,94859.00
2023-05-17T06:07:27.018Z,94859.00
2023-05-17T06:08:27.008Z,94861.00
2023-05-17T06:09:27.004Z,94857.00
2023-05-17T06:10:28.135Z,94859.00
2023-05-17T06:11:27.075Z,94859.00
2023-05-17T06:12:26.977Z,94855.00
2023-05-17T06:13:26.987Z,94855.00
2023-05-17T06:14:26.993Z,94859.00
2023-05-17T06:15:26.965Z,94861.00
2023-05-17T06:16:26.977Z,94865.00
2023-05-17T06:17:26.978Z,94863.00
2023-05-17T06:18:27.117Z,94863.00
2023-05-17T06:19:27.208Z,94863.00
2023-05-17T06:20:27.244Z,94865.00
2023-05-17T06:21:27.078Z,94865.00
2023-05-17T06:22:27.110Z,94865.00
2023-05-17T06:23:27.144Z,94867.00
2023-05-17T06:24:27.166Z,94871.00
2023-05-17T06:25:27.158Z,94867.00
2023-05-17T06:26:27.207Z,94872.00
2023-05-17T06:27:27.197Z,94871.00
2023-05-17T06:28:27.234Z,94871.00
2023-05-17T06:29:27.242Z,94874.00
2023-05-17T06:30:27.575Z,94872.00
2023-05-17T06:31:27.416Z,94874.00
2023-05-17T06:32:27.381Z,94874.00
2023-05-17T06:33:27.427Z,94874.00
2023-05-17T06:34:27.299Z,94874.00
2023-05-17T06:35:27.651Z,94876.00
2023-05-17T06:36:27.327Z,94874.00
2023-05-17T06:37:27.360Z,94878.00
2023-05-17T06:38:27.516Z,94880.00
2023-05-17T06:39:27.431Z,94880.00
2023-05-17T06:40:27.515Z,94880.00
2023-05-17T06:41:27.548Z,94882.00
2023-05-17T06:42:27.504Z,94894.00
2023-05-17T06:43:27.560Z,94894.00
2023-05-17T06:44:27.626Z,94884.00
2023-05-17T06:45:27.661Z,94884.00
2023-05-17T06:46:27.826Z,94886.00
2023-05-17T06:47:27.861Z,94886.00
2023-05-17T06:48:27.922Z,94894.00
2023-05-17T06:49:27.850Z,94886.00
2023-05-17T06:50:28.043Z,94894.00
2023-05-17T06:51:27.939Z,94896.00
2023-05-17T06:52:27.907Z,94898.00
2023-05-17T06:53:27.977Z,94896.00
2023-05-17T06:54:27.980Z,94900.00
2023-05-17T06:55:29.030Z,94900.00
2023-05-17T06:56:27.986Z,94900.00
2023-05-17T06:57:28.004Z,94902.00
2023-05-17T06:58:28.049Z,94908.00
2023-05-17T06:59:28.113Z,94904.00
2023-05-17T07:00:28.346Z,94906.00
2023-05-17T07:01:28.212Z,94906.00
2023-05-17T07:02:28.405Z,94910.00
2023-05-17T07:03:28.337Z,94914.00
2023-05-17T07:04:28.452Z,94908.00
2023-05-17T07:05:28.856Z,94910.00
2023-05-17T07:06:28.470Z,94910.00
2023-05-17T07:07:28.565Z,94916.00
2023-05-17T07:08:28.593Z,94916.00
2023-05-17T07:09:28.631Z,94912.00
2023-05-17T07:10:28.682Z,94916.00
2023-05-17T07:11:28.729Z,94917.00
2023-05-17T07:12:28.794Z,94914.00
2023-05-17T07:13:28.808Z,94917.00
2023-05-17T07:14:29.060Z,94917.00
2023-05-17T07:15:29.167Z,94917.00
2023-05-17T07:16:28.951Z,94919.00
2023-05-17T07:17:29.018Z,94919.00
2023-05-17T07:18:29.058Z,94923.00
2023-05-17T07:19:29.168Z,94923.00
2023-05-17T07:20:29.112Z,94923.00
2023-05-17T07:21:29.146Z,94923.00
2023-05-17T07:22:29.158Z,94923.00
2023-05-17T07:23:29.414Z,94921.00
2023-05-17T07:24:29.185Z,94921.00
2023-05-17T07:25:29.358Z,94919.00
2023-05-17T07:26:29.190Z,94925.00
2023-05-17T07:27:29.191Z,94919.00
2023-05-17T07:28:29.226Z,94921.00
2023-05-17T07:29:29.183Z,94923.00
2023-05-17T07:30:29.199Z,94925.00
2023-05-17T07:31:29.194Z,94925.00
2023-05-17T07:32:29.216Z,94923.00
2023-05-17T07:33:29.208Z,94927.00
2023-05-17T07:34:29.251Z,94925.00
2023-05-17T07:35:29.470Z,94931.00
2023-05-17T07:36:29.340Z,94933.00
2023-05-17T07:37:29.337Z,94931.00
2023-05-17T07:38:29.419Z,94933.00
2023-05-17T07:39:29.645Z,94933.00
2023-05-17T07:40:29.516Z,94929.00
2023-05-17T07:41:29.556Z,94933.00
2023-05-17T07:42:29.560Z,94927.00
2023-05-17T07:43:29.623Z,94929.00
2023-05-17T07:44:29.630Z,94931.00
2023-05-17T07:45:29.884Z,94931.00
2023-05-17T07:46:29.700Z,94931.00
2023-05-17T07:47:29.848Z,94929.00
2023-05-17T07:48:30.072Z,94927.00
2023-05-17T07:49:29.796Z,94931.00
2023-05-17T07:50:29.778Z,94935.00
2023-05-17T07:51:29.813Z,94933.00
2023-05-17T07:52:29.827Z,94933.00
2023-05-17T07:53:29.836Z,94933.00
2023-05-17T07:54:29.871Z,94933.00
2023-05-17T07:55:30.090Z,94937.00
2023-05-17T07:56:29.864Z,94935.00
2023-05-17T07:57:29.877Z,94935.00
2023-05-17T07:58:29.891Z,94933.00
2023-05-17T07:59:29.915Z,94939.00
2023-05-17T08:00:29.939Z,94939.00
2023-05-17T08:01:29.926Z,94939.00
2023-05-17T08:02:30.010Z,94941.00
2023-05-17T08:03:29.978Z,94941.00
2023-05-17T08:04:30.012Z,94941.00
2023-05-17T08:05:30.172Z,94941.00
2023-05-17T08:06:30.077Z,94941.00
2023-05-17T08:07:29.983Z,94939.00
2023-05-17T08:08:30.025Z,94941.00
2023-05-17T08:09:30.028Z,94937.00
2023-05-17T08:10:30.045Z,94943.00
2023-05-17T08:11:30.053Z,94945.00
2023-05-17T08:12:30.113Z,94945.00
2023-05-17T08:13:30.088Z,94943.00
2023-05-17T08:14:30.090Z,94947.00
2023-05-17T08:15:30.311Z,94949.00
2023-05-17T08:16:30.212Z,94949.00
2023-05-17T08:17:30.125Z,94951.00
2023-05-17T08:18:30.258Z,94953.00
2023-05-17T08:19:30.392Z,94953.00
2023-05-17T08:20:30.215Z,94957.00
2023-05-17T08:21:30.214Z,94955.00
2023-05-17T08:22:30.243Z,94957.00
2023-05-17T08:23:30.282Z,94959.00
2023-05-17T08:24:30.277Z,94959.00
2023-05-17T08:25:30.469Z,94961.00
2023-05-17T08:26:30.248Z,94959.00
2023-05-17T08:27:30.240Z,94963.00
2023-05-17T08:28:30.271Z,94959.00
2023-05-17T08:29:30.269Z,94961.00
2023-05-17T08:30:30.245Z,94963.00
2023-05-17T08:31:30.242Z,94963.00
2023-05-17T08:32:30.280Z,94966.00
2023-05-17T08:33:30.335Z,94964.00
2023-05-17T08:34:30.266Z,94968.00
2023-05-17T08:35:30.528Z,94970.00
2023-05-17T08:36:30.225Z,94972.00
2023-05-17T08:37:30.223Z,94972.00
2023-05-17T08:38:30.236Z,94972.00
2023-05-17T08:39:30.219Z,94974.00
2023-05-17T08:40:30.575Z,94976.00
2023-05-17T08:41:30.231Z,94974.00
2023-05-17T08:42:30.260Z,94976.00
2023-05-17T08:43:30.512Z,94976.00
2023-05-17T08:44:30.285Z,94978.00
2023-05-17T08:45:30.465Z,94980.00
2023-05-17T08:46:30.211Z,94982.00
2023-05-17T08:47:30.294Z,94982.00
2023-05-17T08:48:30.534Z,94986.00
2023-05-17T08:49:30.341Z,94988.00
2023-05-17T08:50:30.668Z,94992.00
2023-05-17T08:51:30.428Z,94992.00
2023-05-17T08:52:30.489Z,94996.00
2023-05-17T08:53:30.541Z,94994.00
2023-05-17T08:54:30.632Z,94998.00
2023-05-17T08:55:30.655Z,95000.00
2023-05-17T08:56:30.704Z,95002.00
2023-05-17T08:57:30.735Z,95002.00
2023-05-17T08:58:32.407Z,95006.00
2023-05-17T08:59:30.823Z,95006.00
2023-05-17T09:00:30.928Z,95006.00
2023-05-17T09:01:32.974Z,95006.00
2023-05-17T09:02:30.773Z,95008.00
2023-05-17T09:03:31.136Z,95012.00
2023-05-17T09:04:30.727Z,95014.00
2023-05-17T09:05:31.603Z,95014.00
2023-05-17T09:06:30.770Z,95014.00
2023-05-17T09:07:30.816Z,95018.00
2023-05-17T09:08:30.873Z,95016.00
2023-05-17T09:09:30.903Z,95016.00
2023-05-17T09:10:31.134Z,95018.00
2023-05-17T09:11:30.968Z,95019.00
2023-05-17T09:12:30.941Z,95019.00
2023-05-17T09:13:30.966Z,95021.00
2023-05-17T09:14:30.985Z,95027.00
2023-05-17T09:15:31.084Z,95023.00
2023-05-17T09:16:30.990Z,95027.00
2023-05-17T09:17:31.094Z,95029.00
2023-05-17T09:18:31.106Z,95029.00
2023-05-17T09:19:31.200Z,95027.00
2023-05-17T09:20:31.238Z,95029.00
2023-05-17T09:21:31.147Z,95031.00
2023-05-17T09:22:31.146Z,95033.00
2023-05-17T09:23:31.170Z,95033.00
2023-05-17T09:24:31.197Z,95033.00
2023-05-17T09:25:31.177Z,95037.00
2023-05-17T09:26:31.197Z,95039.00
2023-05-17T09:27:31.209Z,95039.00
2023-05-17T09:28:31.240Z,95043.00
2023-05-17T09:29:31.227Z,95041.00
2023-05-17T09:30:31.607Z,95047.00
2023-05-17T09:31:31.356Z,95047.00
2023-05-17T09:32:32.080Z,95049.00
2023-05-17T09:33:31.589Z,95047.00
2023-05-17T09:34:31.285Z,95049.00
2023-05-17T09:35:31.332Z,95047.00
2023-05-17T09:36:31.313Z,95047.00
2023-05-17T09:37:31.329Z,95049.00
2023-05-17T09:38:31.343Z,95045.00
2023-05-17T09:39:31.375Z,95047.00
2023-05-17T09:40:31.387Z,95047.00
2023-05-17T09:41:31.422Z,95053.00
2023-05-17T09:42:31.483Z,95053.00
2023-05-17T09:43:31.543Z,95049.00
2023-05-17T09:44:31.592Z,95049.00
2023-05-17T09:45:31.566Z,95053.00
2023-05-17T09:46:31.603Z,95055.00
2023-05-17T09:47:31.821Z,95057.00
2023-05-17T09:48:31.804Z,95059.00
2023-05-17T09:49:31.772Z,95057.00
2023-05-17T09:50:31.795Z,95055.00
2023-05-17T09:51:31.815Z,95059.00
2023-05-17T09:52:32.028Z,95059.00
2023-05-17T09:53:31.913Z,95061.00
2023-05-17T09:54:31.954Z,95057.00
2023-05-17T09:55:32.163Z,95059.00
2023-05-17T09:56:32.161Z,95057.00
2023-05-17T09:57:32.106Z,95059.00
2023-05-17T09:58:32.172Z,95053.00
2023-05-17T09:59:32.228Z,95055.00
2023-05-17T10:00:32.330Z,95053.00
2023-05-17T10:01:32.344Z,95053.00
2023-05-17T10:02:32.456Z,95055.00
2023-05-17T10:03:32.656Z,95053.00
2023-05-17T10:04:32.565Z,95051.00
2023-05-17T10:05:32.829Z,95051.00
2023-05-17T10:06:44.112Z,95047.00
2023-05-17T10:07:33.643Z,95051.00
2023-05-17T10:08:32.724Z,95051.00
2023-05-17T10:09:32.621Z,95051.00
2023-05-17T10:10:32.612Z,95051.00
2023-05-17T10:11:32.604Z,95051.00
2023-05-17T10:12:32.655Z,95055.00
2023-05-17T10:13:32.596Z,95057.00
2023-05-17T10:14:32.773Z,95051.00
2023-05-17T10:15:32.614Z,95053.00
2023-05-17T10:16:32.686Z,95053.00
2023-05-17T10:17:32.786Z,95053.00
2023-05-17T10:18:32.986Z,95053.00
2023-05-17T10:19:32.972Z,95053.00
2023-05-17T10:20:32.913Z,95053.00
2023-05-17T10:21:32.977Z,95051.00
2023-05-17T10:22:32.992Z,95053.00
2023-05-17T10:23:33.031Z,95055.00
2023-05-17T10:24:33.080Z,95051.00
2023-05-17T10:25:33.157Z,95055.00
2023-05-17T10:26:33.216Z,95049.00
2023-05-17T10:27:33.349Z,95051.00
2023-05-17T10:28:33.261Z,95049.00
2023-05-17T10:29:33.377Z,95049.00
2023-05-17T10:30:33.623Z,95051.00
2023-05-17T10:31:33.413Z,95051.00
2023-05-17T10:32:33.473Z,95049.00
2023-05-17T10:33:33.667Z,95049.00
2023-05-17T10:34:33.557Z,95049.00
2023-05-17T10:35:33.584Z,95047.00
2023-05-17T10:36:33.730Z,95049.00
2023-05-17T10:37:33.656Z,95049.00
2023-05-17T10:38:42.049Z,95049.00
2023-05-17T10:39:34.694Z,95047.00
2023-05-17T10:40:33.663Z,95047.00
2023-05-17T10:41:33.661Z,95047.00
2023-05-17T10:42:33.660Z,95047.00
2023-05-17T10:43:34.075Z,95049.00
2023-05-17T10:44:33.643Z,95047.00
2023-05-17T10:45:33.622Z,95045.00
2023-05-17T10:46:33.629Z,95045.00
2023-05-17T10:47:33.655Z,95047.00
2023-05-17T10:48:34.111Z,95043.00
2023-05-17T10:49:33.694Z,95047.00
2023-05-17T10:50:33.705Z,95047.00
2023-05-17T10:51:34.033Z,95045.00
2023-05-17T10:52:33.798Z,95047.00
2023-05-17T10:53:33.937Z,95047.00
2023-05-17T10:54:34.494Z,95043.00
2023-05-17T10:55:33.912Z,95043.00
2023-05-17T10:56:33.873Z,95041.00
2023-05-17T10:57:42.775Z,95043.00
2023-05-17T10:58:34.876Z,95045.00
2023-05-17T10:59:33.885Z,95043.00
2023-05-17T11:00:33.871Z,95043.00
2023-05-17T11:01:33.856Z,95041.00
2023-05-17T11:02:33.883Z,95043.00
2023-05-17T11:03:33.846Z,95039.00
2023-05-17T11:04:33.930Z,95041.00
2023-05-17T11:05:33.879Z,95041.00
2023-05-17T11:06:33.863Z,95037.00
2023-05-17T11:07:33.866Z,95039.00
2023-05-17T11:08:33.833Z,95039.00
2023-05-17T11:09:33.805Z,95039.00
2023-05-17T11:10:33.801Z,95043.00
2023-05-17T11:11:33.805Z,95041.00
2023-05-17T11:12:34.936Z,95043.00
2023-05-17T11:13:33.808Z,95045.00
2023-05-17T11:14:33.832Z,95041.00
2023-05-17T11:15:33.765Z,95045.00
2023-05-17T11:16:33.754Z,95043.00
2023-05-17T11:17:34.133Z,95039.00
2023-05-17T11:18:36.910Z,95041.00
2023-05-17T11:19:34.804Z,95043.00
2023-05-17T11:20:34.025Z,95043.00
2023-05-17T11:21:33.792Z,95041.00
2023-05-17T11:22:33.730Z,95041.00
2023-05-17T11:23:33.714Z,95043.00
2023-05-17T11:24:33.713Z,95041.00
2023-05-17T11:25:33.708Z,95039.00
2023-05-17T11:26:33.719Z,95043.00
2023-05-17T11:27:33.683Z,95041.00
2023-05-17T11:28:34.106Z,95039.00
2023-05-17T11:29:33.677Z,95037.00
2023-05-17T11:30:33.694Z,95039.00
2023-05-17T11:31:33.666Z,95039.00
2023-05-17T11:32:33.722Z,95035.00
2023-05-17T11:33:34.254Z,95035.00
2023-05-17T11:34:33.755Z,95037.00
2023-05-17T11:35:33.626Z,95033.00
2023-05-17T11:36:33.632Z,95033.00
2023-05-17T11:37:33.622Z,95035.00
2023-05-17T11:38:33.624Z,95033.00
2023-05-17T11:39:34.513Z,95035.00
2023-05-17T11:40:33.601Z,95033.00
2023-05-17T11:41:33.592Z,95033.00
2023-05-17T11:42:33.617Z,95031.00
2023-05-17T11:43:34.098Z,95031.00
2023-05-17T11:44:33.708Z,95031.00
2023-05-17T11:45:33.752Z,95029.00
2023-05-17T11:46:33.790Z,95027.00
2023-05-17T11:47:33.908Z,95029.00